Time;durP1;ratioP1;P1;durP2;ratioP2;P2;SDS_P1;SDS_P2;PMS_P1;PMS_P2;Temp;Humidity;BMP_temperature;BMP_pressure;BME280_temperature;BME280_humidity;BME280_pressure;Samples;Min_cycle;Max_cycle;Signal;HPM_P1;HPM_P2
2022/11/06 06:53:45;;;;;;;;;6.50;4.50;;;;;12.31;65.30;100850.34;5020219;23;45537;-72
2022/11/06 06:56:15;;;;;;;;;4.75;4.00;;;;;12.02;65.40;100805.00;4845747;29;45469;-73
2022/11/06 06:59:06;;;;;;;;;;;;;;;;;;;;;
2022/11/06 07:01:44;;;;;;;;;3.75;3.00;;;;;12.31;65.56;100843.22;4861576;29;71582;-72
2022/11/06 07:07:28;;;;;;;;;;;;;;;;;;;;;
2022/11/06 07:10:58;;;;;;;;;;;;;;;;;;;;;
2022/11/06 07:13:30;;;;;;;;;;;;;;;;;;;;;
2022/11/06 07:16:31;;;;;;;;;;;;;;;;;;;;;
2022/11/06 09:21:42;;;;;;;;;4.50;4.25;;;;;12.54;68.01;100759.28;4974699;23;45658;-74
2022/11/06 09:24:08;;;;;;;;;4.50;4.50;;;;;12.48;68.14;100750.63;4866920;29;45350;-74
2022/11/06 09:26:33;;;;;;;;;6.00;4.50;;;;;12.53;68.15;100752.22;4864838;29;45367;-74
2022/11/06 09:28:58;;;;;;;;;3.00;3.00;;;;;12.56;68.14;100736.03;4866695;29;45424;-74
2022/11/06 09:31:24;;;;;;;;;5.00;4.00;;;;;12.53;68.72;100729.91;4866985;29;45265;-80
2022/11/06 09:33:50;;;;;;;;;4.75;4.75;;;;;12.54;69.00;100727.16;4866057;29;45157;-74
2022/11/06 09:36:15;;;;;;;;;4.00;4.00;;;;;12.48;68.88;100718.50;4865567;29;45448;-74
2022/11/06 09:38:40;;;;;;;;;5.25;4.50;;;;;12.47;68.96;100714.09;4865960;29;45424;-74
2022/11/06 09:41:06;;;;;;;;;6.00;4.50;;;;;12.46;69.18;100720.38;4863373;29;45449;-74
2022/11/06 09:44:18;;;;;;;;;6.00;5.25;;;;;12.44;69.20;100719.56;4865807;29;45553;-74
2022/11/06 09:46:46;;;;;;;;;5.00;5.00;;;;;12.31;69.36;100689.75;4800851;29;45276;-77
2022/11/06 09:49:31;;;;;;;;;6.00;4.75;;;;;12.36;69.86;100698.47;4856370;29;46706;-74
2022/11/06 09:52:00;;;;;;;;;6.25;5.00;;;;;12.40;69.56;100711.66;4863640;29;46421;-74
2022/11/06 09:54:30;;;;;;;;;4.00;4.00;;;;;12.27;69.51;100689.00;4865460;29;45462;-74
2022/11/06 09:57:02;;;;;;;;;4.00;4.00;;;;;12.42;69.65;100716.97;4866084;29;45351;-76
2022/11/06 09:59:33;;;;;;;;;7.00;6.25;;;;;12.44;69.67;100709.72;4865815;29;45398;-76
2022/11/06 10:02:00;;;;;;;;;4.25;4.25;;;;;12.42;69.87;100699.09;4865932;29;46311;-75
2022/11/06 10:04:48;;;;;;;;;6.00;6.00;;;;;12.49;69.57;100706.88;4865371;29;45662;-74
2022/11/06 10:07:34;;;;;;;;;5.75;5.75;;;;;12.47;69.80;100698.03;4866266;29;45822;-75
2022/11/06 10:10:03;;;;;;;;;9.00;4.25;;;;;12.48;69.97;100703.34;4867469;29;45289;-75
2022/11/06 10:13:02;;;;;;;;;12.50;6.00;;;;;12.51;70.04;100705.00;4860522;29;46753;-75
2022/11/06 10:15:57;;;;;;;;;3.50;3.00;;;;;12.52;70.36;100706.75;4866112;29;45585;-75
2022/11/06 10:18:41;;;;;;;;;8.75;5.25;;;;;12.49;70.71;100688.13;4855340;29;45497;-75
2022/11/06 10:21:19;;;;;;;;;5.50;5.00;;;;;12.53;70.61;100704.00;4845858;29;45400;-78
2022/11/06 10:24:02;;;;;;;;;6.50;4.00;;;;;12.49;70.25;100677.41;4860208;29;45940;-78
2022/11/06 10:26:40;;;;;;;;;7.00;6.00;;;;;12.56;70.16;100703.00;4865725;29;45743;-78
2022/11/06 10:29:30;;;;;;;;;7.00;6.00;;;;;12.57;70.11;100694.03;4848658;29;45626;-78
2022/11/06 10:32:14;;;;;;;;;6.00;6.00;;;;;12.56;70.75;100698.53;4865191;29;45330;-74
2022/11/06 10:34:56;;;;;;;;;7.50;5.00;;;;;12.52;70.96;100698.72;4857186;29;45486;-75
2022/11/06 10:37:27;;;;;;;;;9.00;7.00;;;;;12.56;70.77;100705.69;4845807;29;45476;-75
2022/11/06 10:39:56;;;;;;;;;7.50;6.75;;;;;12.48;70.91;100694.41;4863299;29;45433;-74
2022/11/06 10:42:30;;;;;;;;;6.75;5.75;;;;;12.44;70.84;100690.13;4863727;29;45514;-74
2022/11/06 10:45:10;;;;;;;;;6.50;6.50;;;;;12.55;71.06;100720.03;4841345;29;48139;-75
2022/11/06 10:47:51;;;;;;;;;10.00;8.25;;;;;12.56;71.18;100705.69;4859195;29;45300;-75
2022/11/06 10:50:16;;;;;;;;;11.25;7.50;;;;;12.53;70.96;100704.00;4846192;29;45413;-75
2022/11/06 10:52:53;;;;;;;;;12.00;7.75;;;;;12.57;70.88;100700.25;4863518;29;45333;-75
2022/11/06 10:55:53;;;;;;;;;6.00;5.00;;;;;12.56;70.63;100690.50;4860808;29;47787;-74
2022/11/06 10:58:22;;;;;;;;;9.75;6.25;;;;;12.52;70.99;100683.53;4861157;29;45472;-75
2022/11/06 11:00:49;;;;;;;;;5.00;5.00;;;;;12.41;71.01;100662.56;4863505;29;45515;-74
2022/11/06 11:03:21;;;;;;;;;6.00;6.00;;;;;12.47;70.95;100671.28;4863356;29;45378;-74
2022/11/06 11:05:46;;;;;;;;;7.00;7.00;;;;;12.42;70.89;100666.97;4859215;29;45904;-74
2022/11/06 11:08:32;;;;;;;;;9.25;8.50;;;;;12.39;71.02;100652.84;4865469;29;45182;-75
2022/11/06 11:11:12;;;;;;;;;6.25;5.00;;;;;12.40;71.03;100662.63;4863202;29;45506;-74
2022/11/06 11:13:43;;;;;;;;;7.00;5.00;;;;;12.29;71.16;100632.75;4848681;29;45500;-74
2022/11/06 11:16:19;;;;;;;;;6.50;6.00;;;;;12.40;71.33;100662.63;4863327;29;45548;-74
2022/11/06 11:18:45;;;;;;;;;6.00;5.00;;;;;12.33;71.67;100653.06;4851626;29;45375;-74
2022/11/06 11:21:16;;;;;;;;;6.50;5.75;;;;;12.41;71.53;100667.91;4850885;29;47328;-75
2022/11/06 11:23:42;;;;;;;;;7.25;6.00;;;;;12.41;71.46;100659.00;4844297;29;45496;-74
2022/11/06 11:26:20;;;;;;;;;7.00;5.75;;;;;12.41;71.47;100654.53;4842218;29;46008;-74
2022/11/06 11:28:55;;;;;;;;;6.00;6.00;;;;;12.32;71.88;100640.66;4841961;29;45675;-74
2022/11/06 11:31:28;;;;;;;;;7.00;4.00;;;;;12.40;71.88;100655.44;4842566;29;45612;-74
2022/11/06 11:33:56;;;;;;;;;6.00;6.00;;;;;12.34;71.86;100642.31;4838066;29;45606;-74
2022/11/06 11:36:22;;;;;;;;;7.00;5.50;;;;;12.37;71.79;100641.31;4837150;29;45883;-73
2022/11/06 11:38:48;;;;;;;;;7.75;6.75;;;;;12.23;71.99;100607.97;4842995;29;45782;-74
2022/11/06 11:41:22;;;;;;;;;6.25;6.25;;;;;12.29;71.92;100612.19;4842921;29;45495;-74
2022/11/06 11:44:16;;;;;;;;;7.00;6.50;;;;;12.33;71.80;100595.09;4841963;29;45512;-74
2022/11/06 11:46:45;;;;;;;;;7.50;7.50;;;;;12.27;71.93;100583.75;4834971;29;47029;-74
2022/11/06 11:49:28;;;;;;;;;8.75;8.75;;;;;12.27;72.08;100591.78;4843348;29;45748;-74
2022/11/06 11:51:57;;;;;;;;;10.50;6.00;;;;;12.21;72.10;100574.16;4852124;29;45570;-74
2022/11/06 11:54:26;;;;;;;;;9.75;7.00;;;;;12.22;72.26;100573.25;4845908;29;45406;-74
2022/11/06 11:57:06;;;;;;;;;6.25;6.25;;;;;12.22;72.06;100571.44;4846261;29;47467;-74
2022/11/06 11:59:48;;;;;;;;;8.75;8.50;;;;;12.25;71.85;100570.44;4846653;29;45775;-74
2022/11/06 12:02:42;;;;;;;;;9.25;8.25;;;;;12.23;72.34;100559.81;4841078;29;47144;-75
2022/11/06 12:05:12;;;;;;;;;8.25;8.00;;;;;12.22;72.38;100567.91;4843659;29;45575;-74
2022/11/06 12:07:42;;;;;;;;;10.50;10.00;;;;;12.12;72.61;100542.47;4844320;29;45708;-75
2022/11/06 12:10:32;;;;;;;;;10.75;9.50;;;;;12.25;72.65;100567.78;4845854;29;45429;-75
2022/11/06 12:13:01;;;;;;;;;8.25;8.25;;;;;12.21;72.59;100556.34;4846471;29;45436;-75
2022/11/06 12:15:36;;;;;;;;;10.50;8.00;;;;;12.19;72.66;100558.19;4845968;29;45529;-76
2022/11/06 12:18:14;;;;;;;;;6.75;6.75;;;;;12.22;72.73;100549.16;4844485;29;46152;-75
2022/11/06 12:21:03;;;;;;;;;11.25;10.25;;;;;12.21;72.92;100540.28;4853037;29;45622;-76
2022/11/06 12:23:49;;;;;;;;;7.75;6.75;;;;;12.27;72.92;100546.28;4854070;29;45790;-76
2022/11/06 12:26:31;;;;;;;;;6.75;6.75;;;;;12.28;73.06;100535.53;4848214;29;45657;-76
2022/11/06 12:29:15;;;;;;;;;9.25;7.00;;;;;12.28;73.08;100531.97;4863219;29;47497;-76
2022/11/06 12:31:50;;;;;;;;;10.25;6.75;;;;;12.30;72.99;100530.97;4863997;29;45379;-76
2022/11/06 12:34:38;;;;;;;;;7.75;6.75;;;;;12.27;73.15;100522.22;4863672;29;45403;-75
2022/11/06 12:37:12;;;;;;;;;8.25;7.00;;;;;12.29;72.77;100525.69;4846953;29;45857;-76
2022/11/06 12:39:41;;;;;;;;;11.75;7.00;;;;;12.28;72.57;100518.59;4864713;29;46371;-76
2022/11/06 12:42:10;;;;;;;;;10.25;7.50;;;;;12.25;72.65;100511.56;4863127;29;45727;-75
2022/11/06 12:44:36;;;;;;;;;10.00;6.75;;;;;12.21;73.01;100492.09;4854920;29;45398;-76
2022/11/06 12:47:11;;;;;;;;;10.00;7.00;;;;;12.20;72.94;100481.47;4847808;29;45517;-79
2022/11/06 12:50:32;;;;;;;;;8.75;8.00;;;;;12.28;72.83;100494.50;4876967;29;47426;-75
2022/11/06 12:53:37;;;;;;;;;10.25;7.75;;;;;12.22;73.03;100492.97;4848092;29;45444;-76
2022/11/06 12:56:25;;;;;;;;;8.50;8.50;;;;;12.26;73.11;100488.34;4863131;29;45426;-79
2022/11/06 12:58:50;;;;;;;;;9.75;8.50;;;;;12.25;73.09;100481.28;4864540;29;45647;-79
2022/11/06 13:01:54;;;;;;;;;9.50;9.50;;;;;12.20;73.28;100478.78;4846955;29;46931;-78
2022/11/06 13:04:48;;;;;;;;;8.00;8.00;;;;;12.19;73.29;100477.91;4803824;29;45643;-78
2022/11/06 13:07:28;;;;;;;;;6.00;6.00;;;;;12.18;73.17;100484.19;4862334;29;45419;-79
2022/11/06 13:10:20;;;;;;;;;7.50;5.50;;;;;12.18;73.61;100480.66;4844960;29;45704;-79
2022/11/06 13:12:58;;;;;;;;;10.75;8.50;;;;;12.08;73.68;100455.22;4868309;29;45424;-79
2022/11/06 13:15:59;;;;;;;;;12.25;10.50;;;;;12.04;73.77;100443.78;4847040;29;45728;-79
2022/11/06 13:18:34;;;;;;;;;9.25;7.50;;;;;12.16;74.19;100464.69;4860871;29;45464;-78
2022/11/06 13:21:13;;;;;;;;;9.50;9.00;;;;;12.11;73.68;100458.66;4854444;29;45545;-79
2022/11/06 13:24:16;;;;;;;;;11.75;8.00;;;;;12.17;73.70;100463.72;4844137;29;45963;-79
2022/11/06 13:27:08;;;;;;;;;24.25;22.50;;;;;12.18;73.95;100448.56;4839071;29;45285;-79
2022/11/06 13:29:36;;;;;;;;;10.50;10.50;;;;;12.20;74.19;100452.88;4849946;29;45361;-78
2022/11/06 13:32:08;;;;;;;;;9.50;8.00;;;;;12.22;74.08;100442.97;4858089;29;45260;-78
2022/11/06 13:34:37;;;;;;;;;7.75;5.00;;;;;12.22;74.06;100452.81;4851447;29;45406;-78
2022/11/06 13:37:13;;;;;;;;;12.25;9.50;;;;;12.14;74.21;100437.09;4847800;29;45484;-78
2022/11/06 13:39:47;;;;;;;;;10.75;10.00;;;;;12.23;73.96;100438.53;4836861;29;45566;-78
2022/11/06 13:42:28;;;;;;;;;11.00;10.25;;;;;12.26;74.33;100451.75;4849971;29;45593;-78
2022/11/06 13:44:55;;;;;;;;;8.00;6.75;;;;;12.26;74.15;100435.69;4853479;29;45549;-79
2022/11/06 13:47:26;;;;;;;;;9.75;7.75;;;;;12.16;74.47;100420.97;4846139;29;45225;-78
2022/11/06 13:50:20;;;;;;;;;12.00;10.00;;;;;12.21;74.06;100427.00;4848526;29;46656;-78
2022/11/06 13:53:17;;;;;;;;;11.50;8.75;;;;;12.24;74.49;100450.94;4826811;29;45800;-78
2022/11/06 13:56:05;;;;;;;;;11.50;11.00;;;;;12.22;74.39;100426.06;4847643;29;45452;-78
2022/11/06 13:58:54;;;;;;;;;10.25;9.50;;;;;12.20;74.44;100428.81;4847952;29;45517;-78
2022/11/06 14:01:26;;;;;;;;;9.75;9.00;;;;;12.20;74.42;100431.47;4848417;29;45383;-78
2022/11/06 14:04:09;;;;;;;;;11.00;7.75;;;;;12.25;74.38;100433.97;4846440;29;45722;-78
2022/11/06 14:06:37;;;;;;;;;11.00;11.00;;;;;12.14;74.50;100414.81;4835125;29;45359;-79
2022/11/06 14:09:14;;;;;;;;;13.75;12.75;;;;;12.23;74.76;100428.69;4860831;29;45545;-78
2022/11/06 14:11:42;;;;;;;;;8.50;6.50;;;;;12.19;74.72;100421.69;4847382;29;45305;-78
2022/11/06 14:14:20;;;;;;;;;13.50;12.50;;;;;12.23;74.50;100430.50;4831248;29;46240;-78
2022/11/06 14:17:08;;;;;;;;;6.50;6.50;;;;;12.23;74.74;100436.69;4854151;29;45445;-78
2022/11/06 14:19:34;;;;;;;;;9.00;8.00;;;;;12.26;74.93;100435.69;4846823;29;45837;-78
2022/11/06 14:22:26;;;;;;;;;10.75;9.50;;;;;12.07;74.78;100411.56;4864637;29;45368;-79
2022/11/06 14:24:53;;;;;;;;;13.50;10.75;;;;;12.27;74.87;100444.59;4864519;29;46095;-78
2022/11/06 14:27:21;;;;;;;;;7.75;7.75;;;;;12.26;74.81;100449.06;4846139;29;48184;-78
2022/11/06 14:29:59;;;;;;;;;9.50;9.50;;;;;12.23;74.64;100434.03;4853791;29;46362;-78
2022/11/06 14:32:30;;;;;;;;;11.00;11.00;;;;;12.28;74.72;100427.59;4861136;29;45282;-78
2022/11/06 14:34:55;;;;;;;;;8.25;8.00;;;;;12.26;74.96;100443.72;4855394;29;45902;-74
2022/11/06 14:37:41;;;;;;;;;13.25;8.50;;;;;12.30;74.86;100436.44;4862659;29;45587;-75
2022/11/06 14:40:12;;;;;;;;;9.50;8.25;;;;;12.33;74.79;100445.19;4832516;29;45475;-78
2022/11/06 14:42:44;;;;;;;;;7.00;7.00;;;;;12.32;74.58;100440.78;4864691;29;45631;-78
2022/11/06 14:45:17;;;;;;;;;11.25;7.00;;;;;12.35;74.82;100432.63;4866303;29;45465;-79
2022/11/06 14:47:48;;;;;;;;;7.00;6.00;;;;;12.36;75.14;100436.16;4853632;29;46099;-79
2022/11/06 14:50:19;;;;;;;;;9.75;5.50;;;;;12.38;74.61;100434.28;4864262;29;45637;-79
2022/11/06 14:52:56;;;;;;;;;10.75;8.50;;;;;12.40;75.13;100448.47;4875013;29;45663;-79
2022/11/06 14:55:32;;;;;;;;;12.50;10.50;;;;;12.35;75.49;100437.09;4864851;29;45546;-79
2022/11/06 14:58:11;;;;;;;;;10.25;9.25;;;;;12.30;75.22;100431.94;4861523;29;45498;-79
2022/11/06 15:00:53;;;;;;;;;6.50;6.00;;;;;12.38;75.09;100442.31;4858250;29;46011;-79
2022/11/06 15:03:33;;;;;;;;;12.00;8.00;;;;;12.43;75.12;100459.03;4858008;29;46613;-80
2022/11/06 15:06:04;;;;;;;;;8.00;8.00;;;;;12.41;75.26;100450.19;4864908;29;45423;-79
2022/11/06 15:08:57;;;;;;;;;7.50;6.00;;;;;12.42;75.49;100460.84;4864295;29;47087;-79
2022/11/06 15:11:28;;;;;;;;;10.25;7.50;;;;;12.47;75.45;100460.63;4861150;29;45242;-79
2022/11/06 15:14:14;;;;;;;;;9.50;7.75;;;;;12.42;75.35;100449.25;4865924;29;45241;-79
2022/11/06 15:16:44;;;;;;;;;10.00;7.25;;;;;12.49;75.74;100455.22;4818076;29;45796;-79
2022/11/06 15:19:26;;;;;;;;;10.75;10.75;;;;;12.50;75.54;100455.16;4865516;29;45423;-79
2022/11/06 15:22:16;;;;;;;;;7.00;6.00;;;;;12.49;75.56;100445.38;4837588;29;45325;-79
2022/11/06 15:24:46;;;;;;;;;7.00;7.00;;;;;12.44;75.55;100438.50;4836527;29;45333;-79
2022/11/06 15:27:18;;;;;;;;;9.50;7.00;;;;;12.52;75.45;100453.25;4849646;29;45522;-79
2022/11/06 15:29:46;;;;;;;;;7.50;7.50;;;;;12.55;75.26;100457.63;4843390;29;46141;-79
2022/11/06 15:32:17;;;;;;;;;9.25;6.50;;;;;12.58;75.80;100458.34;4850146;29;45202;-79
2022/11/06 15:34:52;;;;;;;;;8.75;8.75;;;;;12.58;75.70;100473.56;4849058;29;45377;-79
2022/11/06 15:37:22;;;;;;;;;8.00;8.00;;;;;12.60;75.55;100464.50;4838833;29;45441;-79
2022/11/06 15:39:55;;;;;;;;;6.75;6.75;;;;;12.60;75.37;100483.25;4849972;29;45336;-79
2022/11/06 15:42:24;;;;;;;;;10.00;8.00;;;;;12.45;75.30;100449.13;4850223;29;45266;-79
2022/11/06 15:44:51;;;;;;;;;12.75;11.00;;;;;12.53;75.50;100463.03;4849699;29;45455;-79
2022/11/06 15:47:22;;;;;;;;;11.25;9.50;;;;;12.58;75.76;100458.34;4849285;29;45285;-79
2022/11/06 15:50:03;;;;;;;;;11.00;9.50;;;;;12.68;75.76;100476.66;4832725;29;47505;-79
2022/11/06 15:52:29;;;;;;;;;8.75;8.75;;;;;12.68;75.90;100479.34;4848545;29;45221;-79
2022/11/06 15:54:54;;;;;;;;;12.00;12.00;;;;;12.66;75.96;100482.09;4849890;29;45413;-79
2022/11/06 15:57:24;;;;;;;;;12.25;11.00;;;;;12.67;76.02;100481.16;4849619;29;45482;-79
2022/11/06 15:59:49;;;;;;;;;11.75;9.50;;;;;12.64;75.96;100483.13;4837885;29;45453;-79
2022/11/06 16:02:18;;;;;;;;;13.75;12.75;;;;;12.72;75.78;100497.88;4832957;29;45317;-79
2022/11/06 16:04:45;;;;;;;;;11.75;10.75;;;;;12.72;75.98;100495.22;4849588;29;45482;-79
2022/11/06 16:07:13;;;;;;;;;7.50;6.00;;;;;12.71;76.10;100488.13;4852902;29;45313;-79
2022/11/06 16:09:41;;;;;;;;;11.25;11.25;;;;;12.63;76.20;100471.53;4853151;29;45435;-79
2022/11/06 16:12:12;;;;;;;;;10.00;9.25;;;;;12.73;76.22;100493.38;4860755;29;45345;-79
2022/11/06 16:14:39;;;;;;;;;9.25;7.25;;;;;12.76;75.92;100499.50;4849745;29;45290;-80
2022/11/06 16:17:21;;;;;;;;;7.50;7.50;;;;;12.73;75.83;100483.56;4849672;29;45262;-79
2022/11/06 16:19:51;;;;;;;;;8.00;8.00;;;;;12.68;75.98;100477.56;4845286;29;47346;-78
2022/11/06 16:22:20;;;;;;;;;10.75;9.75;;;;;12.82;76.02;100490.31;4847268;29;45471;-80
2022/11/06 16:24:50;;;;;;;;;11.25;8.00;;;;;12.85;75.64;100497.34;4848566;29;45259;-80
2022/11/06 16:27:16;;;;;;;;;8.25;7.25;;;;;12.88;76.14;100495.41;4831518;29;46059;-80
2022/11/06 16:29:48;;;;;;;;;12.75;9.50;;;;;12.84;75.79;100479.53;4825022;29;47250;-80
2022/11/06 16:32:22;;;;;;;;;7.00;7.00;;;;;12.89;75.65;100478.34;4848176;29;45789;-80
2022/11/06 16:34:48;;;;;;;;;11.25;11.25;;;;;12.89;75.54;100475.69;4848182;29;45423;-80
2022/11/06 16:37:16;;;;;;;;;8.25;8.00;;;;;12.94;75.85;100479.00;4849219;29;45354;-80
2022/11/06 16:39:52;;;;;;;;;11.25;9.50;;;;;12.92;75.88;100472.00;4848482;29;45381;-80
2022/11/06 16:42:26;;;;;;;;;12.75;11.75;;;;;12.99;75.69;100481.50;4849206;29;45519;-80
2022/11/06 16:45:14;;;;;;;;;10.00;9.00;;;;;12.99;75.82;100473.44;4837303;29;45346;-81
2022/11/06 16:47:40;;;;;;;;;8.25;8.25;;;;;13.00;75.86;100477.88;4833929;29;45823;-80
2022/11/06 16:50:41;;;;;;;;;8.75;8.75;;;;;12.97;75.81;100468.16;4848212;29;45193;-80
2022/11/06 16:53:08;;;;;;;;;7.00;7.00;;;;;13.01;76.29;100471.56;4837764;29;45495;-80
2022/11/06 16:55:34;;;;;;;;;7.00;7.00;;;;;13.01;76.38;100476.91;4852095;29;45464;-80
2022/11/06 16:58:02;;;;;;;;;8.00;7.00;;;;;13.03;76.11;100476.84;4857084;29;45370;-80
2022/11/06 17:00:29;;;;;;;;;7.50;7.50;;;;;13.04;76.25;100489.31;4847145;29;45500;-80
2022/11/06 17:02:55;;;;;;;;;10.50;8.75;;;;;13.05;76.35;100486.56;4847148;29;46097;-80
2022/11/06 17:05:22;;;;;;;;;10.00;9.00;;;;;13.03;76.76;100487.56;4845722;29;45353;-80
2022/11/06 17:08:23;;;;;;;;;8.75;8.75;;;;;13.07;76.83;100502.56;4844820;29;45384;-81
2022/11/06 17:10:49;;;;;;;;;8.50;8.00;;;;;13.07;76.85;100498.06;4835049;29;47542;-80
2022/11/06 17:13:14;;;;;;;;;9.50;8.50;;;;;13.07;77.08;100503.44;4831141;29;45432;-80
2022/11/06 17:15:41;;;;;;;;;8.75;8.75;;;;;13.09;76.90;100503.38;4852495;29;45476;-80
2022/11/06 17:18:13;;;;;;;;;9.00;7.25;;;;;13.08;76.92;100501.63;4847436;29;45411;-80
2022/11/06 17:20:40;;;;;;;;;8.25;8.25;;;;;13.12;77.02;100505.91;4855127;29;45402;-80
2022/11/06 17:23:05;;;;;;;;;8.00;8.00;;;;;13.14;76.82;100504.03;4863945;29;45369;-80
2022/11/06 17:25:31;;;;;;;;;8.75;7.25;;;;;13.05;76.96;100478.53;4866022;29;45458;-80
2022/11/06 17:27:56;;;;;;;;;7.75;7.75;;;;;13.19;77.05;100501.13;4866025;29;45483;-80
2022/11/06 17:30:22;;;;;;;;;8.50;7.50;;;;;13.20;77.06;100503.75;4849619;29;47058;-80
2022/11/06 17:32:47;;;;;;;;;7.75;7.75;;;;;13.13;76.81;100497.81;4867082;29;45340;-80
2022/11/06 17:35:12;;;;;;;;;7.50;7.50;;;;;13.23;76.78;100518.78;4869148;29;45449;-80
2022/11/06 17:37:37;;;;;;;;;10.25;8.75;;;;;13.24;76.99;100523.22;4869304;29;45451;-80
2022/11/06 17:40:04;;;;;;;;;9.75;8.50;;;;;13.27;76.71;100528.44;4866224;29;58081;-80
2022/11/06 17:42:29;;;;;;;;;12.00;8.00;;;;;13.26;76.98;100526.69;4858178;29;45668;-80
2022/11/06 17:44:54;;;;;;;;;8.00;7.75;;;;;13.30;77.12;100531.00;4864479;29;45585;-81
2022/11/06 17:47:19;;;;;;;;;12.50;10.25;;;;;13.32;76.66;100540.72;4846601;29;45424;-80
2022/11/06 17:49:46;;;;;;;;;9.25;8.00;;;;;13.34;76.70;100541.50;4863356;29;45360;-80
2022/11/06 17:52:11;;;;;;;;;9.00;7.50;;;;;13.37;76.57;100532.47;4866271;29;45245;-80
2022/11/06 17:54:38;;;;;;;;;9.00;7.25;;;;;13.32;76.79;100519.25;4866101;29;45249;-80
2022/11/06 17:57:05;;;;;;;;;11.00;9.75;;;;;13.30;76.49;100520.25;4848952;29;45520;-80
2022/11/06 17:59:31;;;;;;;;;8.25;7.00;;;;;13.38;77.06;100528.84;4862183;29;46131;-80
2022/11/06 18:01:57;;;;;;;;;9.00;9.00;;;;;13.45;77.13;100545.50;4866039;29;45381;-80
2022/11/06 18:04:25;;;;;;;;;10.75;9.00;;;;;13.37;77.21;100532.47;4865786;29;45727;-80
2022/11/06 18:06:51;;;;;;;;;8.75;8.75;;;;;13.40;77.57;100545.72;4864903;29;45379;-80
2022/11/06 18:09:18;;;;;;;;;10.50;8.00;;;;;13.44;77.24;100555.34;4863636;29;46170;-80
2022/11/06 18:11:44;;;;;;;;;9.00;7.00;;;;;13.41;77.26;100551.94;4864406;29;45985;-80
2022/11/06 18:14:10;;;;;;;;;10.25;7.50;;;;;13.43;77.15;100563.47;4864775;29;45361;-79
2022/11/06 18:16:38;;;;;;;;;10.50;10.50;;;;;13.47;77.18;100560.56;4863763;29;45474;-80
2022/11/06 18:19:08;;;;;;;;;5.75;5.75;;;;;13.49;77.62;100563.19;4867409;29;46086;-80
2022/11/06 18:21:34;;;;;;;;;7.00;7.00;;;;;13.44;77.38;100558.03;4854166;29;45301;-80
2022/11/06 18:24:00;;;;;;;;;8.50;8.50;;;;;13.52;77.37;100565.72;4864671;29;45269;-80
2022/11/06 18:26:26;;;;;;;;;11.75;9.50;;;;;13.53;77.07;100570.13;4847603;29;45584;-80
2022/11/06 18:28:51;;;;;;;;;9.75;9.25;;;;;13.52;77.28;100571.94;4847143;29;46838;-80
2022/11/06 18:31:17;;;;;;;;;9.25;9.25;;;;;13.51;77.40;100572.00;4863136;29;45427;-80
2022/11/06 18:33:43;;;;;;;;;10.00;9.50;;;;;13.55;77.71;100580.78;4863435;29;45874;-76
2022/11/06 18:36:10;;;;;;;;;7.75;7.25;;;;;13.48;77.83;100561.44;4864759;29;45364;-80
2022/11/06 18:38:36;;;;;;;;;10.25;9.75;;;;;13.44;77.27;100560.72;4847481;29;47073;-76
2022/11/06 18:41:15;;;;;;;;;11.25;7.00;;;;;13.53;77.58;100581.75;4866960;29;45884;-76
2022/11/06 18:43:41;;;;;;;;;7.25;7.25;;;;;13.52;77.10;100576.44;4863204;29;45373;-81
2022/11/06 18:46:09;;;;;;;;;9.50;9.50;;;;;13.56;77.81;100579.84;4857408;29;45706;-80
2022/11/06 18:48:34;;;;;;;;;11.25;10.00;;;;;13.56;77.85;100587.91;4860875;29;46612;-80
2022/11/06 18:51:09;;;;;;;;;9.25;9.25;;;;;13.56;77.78;100575.34;4861132;29;45528;-80
2022/11/06 18:53:35;;;;;;;;;12.50;12.50;;;;;13.55;77.89;100576.31;4845384;29;45568;-80
2022/11/06 18:56:01;;;;;;;;;8.75;8.25;;;;;13.62;77.85;100587.63;4860398;29;45530;-80
2022/11/06 18:58:26;;;;;;;;;11.75;11.25;;;;;13.49;77.83;100563.19;4859365;29;45386;-80
2022/11/06 19:00:52;;;;;;;;;9.50;9.25;;;;;13.53;77.34;100571.00;4859419;29;46835;-80
2022/11/06 19:03:17;;;;;;;;;16.00;14.75;;;;;13.63;77.57;100592.91;4863845;29;45287;-75
2022/11/06 19:05:46;;;;;;;;;10.75;9.00;;;;;13.66;77.66;100597.25;4860941;29;45903;-76
2022/11/06 19:08:12;;;;;;;;;10.00;10.00;;;;;13.67;77.45;100596.31;4858700;29;45544;-76
2022/11/06 19:10:37;;;;;;;;;12.25;12.25;;;;;13.64;77.87;100591.09;4856170;29;45749;-75
2022/11/06 19:13:03;;;;;;;;;8.00;8.00;;;;;13.65;77.65;100595.53;4860639;29;45382;-75
2022/11/06 19:15:28;;;;;;;;;12.00;10.50;;;;;13.70;77.13;100606.91;4859981;29;45788;-75
2022/11/06 19:17:53;;;;;;;;;10.50;10.50;;;;;13.69;77.52;100600.66;4843513;29;45542;-75
2022/11/06 19:20:19;;;;;;;;;10.25;10.00;;;;;13.66;77.58;100591.88;4844504;29;45490;-80
2022/11/06 19:22:48;;;;;;;;;10.25;10.00;;;;;13.68;77.79;100612.34;4861310;29;45520;-80
2022/11/06 19:25:14;;;;;;;;;11.75;11.25;;;;;13.66;77.31;100602.59;4863731;29;45853;-79
2022/11/06 19:27:39;;;;;;;;;11.75;11.00;;;;;13.79;77.62;100621.69;4858220;29;45478;-79
2022/11/06 19:30:05;;;;;;;;;16.75;11.25;;;;;13.79;77.21;100630.59;4843707;29;45973;-80
2022/11/06 19:32:30;;;;;;;;;15.00;11.00;;;;;13.80;77.55;100626.09;4861884;29;45751;-80
2022/11/06 19:34:56;;;;;;;;;11.50;11.25;;;;;13.77;77.37;100626.25;4859370;29;45952;-79
2022/11/06 19:37:21;;;;;;;;;14.00;14.00;;;;;13.71;77.75;100628.28;4857417;29;49922;-78
2022/11/06 19:39:47;;;;;;;;;14.00;13.75;;;;;13.73;77.74;100621.97;4859136;29;45394;-79
2022/11/06 19:42:12;;;;;;;;;9.25;9.25;;;;;13.75;78.01;100618.28;4859740;29;45749;-80
2022/11/06 19:44:38;;;;;;;;;13.50;11.25;;;;;13.82;77.77;100640.31;4857995;29;45425;-79
2022/11/06 19:47:03;;;;;;;;;15.50;12.75;;;;;13.86;77.59;100641.91;4861614;29;45734;-79
2022/11/06 19:49:29;;;;;;;;;16.25;12.75;;;;;13.88;77.49;100642.69;4862642;29;45628;-79
2022/11/06 19:51:54;;;;;;;;;14.75;13.50;;;;;13.88;77.24;100642.69;4857499;29;45848;-79
2022/11/06 19:54:20;;;;;;;;;20.25;17.00;;;;;13.76;77.48;100621.81;4858433;29;45734;-79
2022/11/06 19:56:46;;;;;;;;;15.25;14.75;;;;;13.87;77.54;100654.38;4861120;29;46353;-79
2022/11/06 19:59:12;;;;;;;;;12.50;10.50;;;;;13.91;77.78;100664.00;4861055;29;45899;-79
2022/11/06 20:01:37;;;;;;;;;11.50;11.50;;;;;13.93;78.06;100661.25;4857594;29;45464;-75
2022/11/06 20:04:03;;;;;;;;;11.75;9.50;;;;;13.93;77.90;100646.03;4860290;29;45410;-75
2022/11/06 20:06:29;;;;;;;;;10.75;9.75;;;;;13.96;78.21;100653.94;4861329;29;45733;-74
2022/11/06 20:08:54;;;;;;;;;9.75;9.00;;;;;13.98;78.12;100657.44;4859865;29;45443;-73
2022/11/06 20:11:20;;;;;;;;;10.75;10.00;;;;;13.99;77.90;100659.16;4869269;29;45488;-75
2022/11/06 20:13:46;;;;;;;;;9.75;7.75;;;;;13.98;78.20;100659.22;4861013;29;45510;-75
2022/11/06 20:16:18;;;;;;;;;12.75;10.50;;;;;13.98;78.30;100673.53;4863993;29;45541;-75
2022/11/06 20:18:53;;;;;;;;;10.25;9.00;;;;;14.00;78.22;100670.75;4863992;29;45473;-80
2022/11/06 20:21:19;;;;;;;;;9.00;8.00;;;;;14.01;78.15;100668.00;4862966;29;45614;-79
2022/11/06 20:23:45;;;;;;;;;10.75;8.75;;;;;14.04;78.07;100675.03;4863057;29;45441;-80
2022/11/06 20:26:11;;;;;;;;;5.25;5.25;;;;;14.01;78.35;100670.69;4864011;29;46031;-80
2022/11/06 20:28:36;;;;;;;;;6.25;6.00;;;;;14.00;78.23;100673.44;4864318;29;45399;-80
2022/11/06 20:31:07;;;;;;;;;6.00;5.00;;;;;14.03;78.47;100684.91;4864275;29;45390;-75
2022/11/06 20:33:33;;;;;;;;;6.00;6.00;;;;;14.00;78.40;100681.47;4846139;29;45454;-75
2022/11/06 20:36:08;;;;;;;;;7.50;7.00;;;;;14.04;78.44;100688.47;4863147;29;45620;-75
2022/11/06 20:38:33;;;;;;;;;11.75;8.00;;;;;13.97;78.25;100677.16;4863888;29;45403;-75
2022/11/06 20:40:59;;;;;;;;;5.50;5.50;;;;;14.06;78.12;100692.78;4863177;29;45462;-75
2022/11/06 20:43:24;;;;;;;;;7.00;7.00;;;;;14.03;77.73;100678.66;4863047;29;45511;-75
2022/11/06 20:45:50;;;;;;;;;7.00;6.00;;;;;14.09;77.91;100681.91;4863801;29;45915;-75
2022/11/06 20:48:15;;;;;;;;;5.50;5.50;;;;;14.02;77.61;100677.78;4861945;29;45523;-75
2022/11/06 20:50:41;;;;;;;;;10.75;8.00;;;;;14.09;77.77;100697.16;4862669;29;45437;-75
2022/11/06 20:53:07;;;;;;;;;7.25;7.00;;;;;14.06;77.68;100689.25;4861122;29;45457;-75